Patterson, Louisiana
Current Conditions -  °F | °C
As of 7:15 PM on Wednesday 22 Oct 2014 (Local Time) from KPTN Reporting Station
Clear Clear  
Wind Chill: 64°   Ceiling: Unl
Heat Index: 64°   Visibility: 10mi
Dew Point: 61°   Wind: 3mph
Humidity: 88%   Direction: 10°N
Pressure: 30.06"   Gusts: NA
Location:  29.69°N, 91.3°W
Report Text: KPTN 230015Z AUTO 01003KT 10SM CLR 18/16 A3006 RMK AO1
Loading
Personal Weather Stations






























Interactive Weather Map New forecast layout! Learn more

10-Day Weather Forecast

Advertisements
Track Severe Weather on mobile